sensor_id;sensor_type;location;lat;lon;timestamp;pressure;altitude;pressure_sealevel;temperature;humidity
52535;BME280;38443;53.164;5.802;2024-01-25T00:02:15;104078.25;;;4.95;100.00
52535;BME280;38443;53.164;5.802;2024-01-25T00:04:40;104083.56;;;4.95;100.00
52535;BME280;38443;53.164;5.802;2024-01-25T00:07:08;104094.19;;;4.95;100.00
52535;BME280;38443;53.164;5.802;2024-01-25T00:09:33;104101.16;;;4.93;100.00
52535;BME280;38443;53.164;5.802;2024-01-25T00:11:59;104107.22;;;4.91;100.00
52535;BME280;38443;53.164;5.802;2024-01-25T00:14:24;104118.78;;;4.91;100.00
52535;BME280;38443;53.164;5.802;2024-01-25T00:16:49;104129.38;;;4.91;100.00
52535;BME280;38443;53.164;5.802;2024-01-25T00:19:14;104132.78;;;4.89;100.00
52535;BME280;38443;53.164;5.802;2024-01-25T00:21:43;104146.91;;;4.88;100.00
52535;BME280;38443;53.164;5.802;2024-01-25T00:24:12;104173.44;;;4.88;100.00
52535;BME280;38443;53.164;5.802;2024-01-25T00:26:38;104180.56;;;4.89;100.00
52535;BME280;38443;53.164;5.802;2024-01-25T00:29:04;104187.53;;;4.87;100.00
52535;BME280;38443;53.164;5.802;2024-01-25T00:31:29;104202.47;;;4.85;100.00
52535;BME280;38443;53.164;5.802;2024-01-25T00:33:55;104219.16;;;4.82;100.00
52535;BME280;38443;53.164;5.802;2024-01-25T00:36:20;104242.00;;;4.78;100.00
52535;BME280;38443;53.164;5.802;2024-01-25T00:38:46;104257.91;;;4.78;100.00
52535;BME280;38443;53.164;5.802;2024-01-25T00:41:17;104280.66;;;4.73;100.00
52535;BME280;38443;53.164;5.802;2024-01-25T00:43:43;104285.03;;;4.73;100.00
52535;BME280;38443;53.164;5.802;2024-01-25T00:46:08;104298.25;;;4.71;100.00
52535;BME280;38443;53.164;5.802;2024-01-25T00:48:34;104306.94;;;4.69;100.00
52535;BME280;38443;53.164;5.802;2024-01-25T00:50:59;104317.50;;;4.67;100.00
52535;BME280;38443;53.164;5.802;2024-01-25T00:53:25;104343.19;;;4.68;100.00
52535;BME280;38443;53.164;5.802;2024-01-25T00:55:51;104352.81;;;4.66;100.00
52535;BME280;38443;53.164;5.802;2024-01-25T00:58:16;104378.59;;;4.69;100.00
52535;BME280;38443;53.164;5.802;2024-01-25T01:00:42;104397.03;;;4.66;100.00
52535;BME280;38443;53.164;5.802;2024-01-25T01:03:07;104410.13;;;4.63;100.00
52535;BME280;38443;53.164;5.802;2024-01-25T01:05:33;104432.19;;;4.62;100.00
52535;BME280;38443;53.164;5.802;2024-01-25T01:07:58;104448.91;;;4.60;100.00
52535;BME280;38443;53.164;5.802;2024-01-25T01:10:24;104464.75;;;4.59;100.00
52535;BME280;38443;53.164;5.802;2024-01-25T01:12:49;104501.91;;;4.59;100.00
52535;BME280;38443;53.164;5.802;2024-01-25T01:15:14;104521.41;;;4.59;100.00
52535;BME280;38443;53.164;5.802;2024-01-25T01:17:40;104549.66;;;4.59;100.00
52535;BME280;38443;53.164;5.802;2024-01-25T01:20:05;104580.59;;;4.58;100.00
52535;BME280;38443;53.164;5.802;2024-01-25T01:22:30;104593.59;;;4.54;100.00
52535;BME280;38443;53.164;5.802;2024-01-25T01:24:56;104614.63;;;4.51;100.00
52535;BME280;38443;53.164;5.802;2024-01-25T01:27:21;104638.44;;;4.49;100.00
52535;BME280;38443;53.164;5.802;2024-01-25T01:29:46;104662.13;;;4.46;100.00
52535;BME280;38443;53.164;5.802;2024-01-25T01:32:11;104684.25;;;4.47;100.00
52535;BME280;38443;53.164;5.802;2024-01-25T01:34:37;104716.84;;;4.44;100.00
52535;BME280;38443;53.164;5.802;2024-01-25T01:37:02;104745.22;;;4.45;100.00
52535;BME280;38443;53.164;5.802;2024-01-25T01:39:27;104764.59;;;4.44;100.00
52535;BME280;38443;53.164;5.802;2024-01-25T01:41:52;104778.75;;;4.45;100.00
52535;BME280;38443;53.164;5.802;2024-01-25T01:44:18;104800.72;;;4.42;100.00
52535;BME280;38443;53.164;5.802;2024-01-25T01:46:43;104807.66;;;4.40;100.00
52535;BME280;38443;53.164;5.802;2024-01-25T01:49:12;104827.06;;;4.39;100.00
52535;BME280;38443;53.164;5.802;2024-01-25T01:51:37;104843.69;;;4.36;100.00
52535;BME280;38443;53.164;5.802;2024-01-25T01:54:05;104857.06;;;4.38;100.00
52535;BME280;38443;53.164;5.802;2024-01-25T01:56:31;104868.56;;;4.38;100.00
52535;BME280;38443;53.164;5.802;2024-01-25T01:58:59;104879.91;;;4.36;100.00
52535;BME280;38443;53.164;5.802;2024-01-25T02:01:25;104892.19;;;4.34;100.00
52535;BME280;38443;53.164;5.802;2024-01-25T02:03:50;104899.91;;;4.31;100.00
52535;BME280;38443;53.164;5.802;2024-01-25T02:06:16;104913.38;;;4.34;100.00
52535;BME280;38443;53.164;5.802;2024-01-25T02:08:41;104923.78;;;4.31;100.00
52535;BME280;38443;53.164;5.802;2024-01-25T02:11:06;104947.66;;;4.31;100.00
52535;BME280;38443;53.164;5.802;2024-01-25T02:13:32;104966.44;;;4.34;100.00
52535;BME280;38443;53.164;5.802;2024-01-25T02:15:58;104984.09;;;4.33;100.00
52535;BME280;38443;53.164;5.802;2024-01-25T02:18:23;104999.00;;;4.31;100.00
52535;BME280;38443;53.164;5.802;2024-01-25T02:20:48;105017.47;;;4.30;100.00
52535;BME280;38443;53.164;5.802;2024-01-25T02:23:13;105024.41;;;4.28;100.00
52535;BME280;38443;53.164;5.802;2024-01-25T02:25:38;105043.06;;;4.29;100.00
52535;BME280;38443;53.164;5.802;2024-01-25T02:28:04;105053.56;;;4.28;100.00
52535;BME280;38443;53.164;5.802;2024-01-25T02:30:29;105079.19;;;4.27;100.00
52535;BME280;38443;53.164;5.802;2024-01-25T02:32:54;105103.06;;;4.27;100.00
52535;BME280;38443;53.164;5.802;2024-01-25T02:35:20;105121.41;;;4.24;100.00
52535;BME280;38443;53.164;5.802;2024-01-25T02:37:46;105141.72;;;4.24;100.00
52535;BME280;38443;53.164;5.802;2024-01-25T02:40:11;105160.16;;;4.22;100.00
52535;BME280;38443;53.164;5.802;2024-01-25T02:42:36;105179.44;;;4.19;100.00
52535;BME280;38443;53.164;5.802;2024-01-25T02:45:02;105200.34;;;4.15;100.00
52535;BME280;38443;53.164;5.802;2024-01-25T02:47:27;105214.31;;;4.12;100.00
52535;BME280;38443;53.164;5.802;2024-01-25T02:49:52;105226.34;;;4.07;100.00
52535;BME280;38443;53.164;5.802;2024-01-25T02:52:17;105250.91;;;4.05;100.00
52535;BME280;38443;53.164;5.802;2024-01-25T02:54:42;105265.69;;;4.01;100.00
52535;BME280;38443;53.164;5.802;2024-01-25T02:57:08;105280.47;;;3.97;100.00
52535;BME280;38443;53.164;5.802;2024-01-25T02:59:33;105289.94;;;3.94;100.00
52535;BME280;38443;53.164;5.802;2024-01-25T03:01:58;105307.47;;;3.92;100.00
52535;BME280;38443;53.164;5.802;2024-01-25T03:04:23;105353.31;;;3.91;100.00
52535;BME280;38443;53.164;5.802;2024-01-25T03:06:49;105378.13;;;3.91;100.00
52535;BME280;38443;53.164;5.802;2024-01-25T03:09:14;105403.59;;;3.89;100.00
52535;BME280;38443;53.164;5.802;2024-01-25T03:11:39;105416.63;;;3.86;100.00
52535;BME280;38443;53.164;5.802;2024-01-25T03:14:04;105444.97;;;3.87;100.00
52535;BME280;38443;53.164;5.802;2024-01-25T03:16:29;105473.19;;;3.87;100.00
52535;BME280;38443;53.164;5.802;2024-01-25T03:18:55;105481.97;;;3.86;100.00
52535;BME280;38443;53.164;5.802;2024-01-25T03:21:20;105497.75;;;3.84;100.00
52535;BME280;38443;53.164;5.802;2024-01-25T03:23:45;105521.47;;;3.83;100.00
52535;BME280;38443;53.164;5.802;2024-01-25T03:28:05;105545.13;;;3.79;100.00
52535;BME280;38443;53.164;5.802;2024-01-25T03:30:31;105552.84;;;3.76;100.00
52535;BME280;38443;53.164;5.802;2024-01-25T03:32:56;105575.66;;;3.74;100.00
52535;BME280;38443;53.164;5.802;2024-01-25T03:35:21;105590.31;;;3.69;100.00
52535;BME280;38443;53.164;5.802;2024-01-25T03:37:47;105608.59;;;3.66;100.00
52535;BME280;38443;53.164;5.802;2024-01-25T03:40:12;105612.66;;;3.61;100.00
52535;BME280;38443;53.164;5.802;2024-01-25T03:42:37;105613.88;;;3.54;100.00
52535;BME280;38443;53.164;5.802;2024-01-25T03:45:03;105624.00;;;3.48;100.00
52535;BME280;38443;53.164;5.802;2024-01-25T03:47:28;105634.25;;;3.44;100.00
52535;BME280;38443;53.164;5.802;2024-01-25T03:49:53;105662.47;;;3.43;100.00
52535;BME280;38443;53.164;5.802;2024-01-25T03:52:18;105687.94;;;3.41;100.00
52535;BME280;38443;53.164;5.802;2024-01-25T03:54:44;105713.47;;;3.40;100.00
52535;BME280;38443;53.164;5.802;2024-01-25T03:57:09;105738.25;;;3.41;100.00
52535;BME280;38443;53.164;5.802;2024-01-25T03:59:34;105751.25;;;3.38;100.00
52535;BME280;38443;53.164;5.802;2024-01-25T04:01:59;105775.75;;;3.35;100.00
52535;BME280;38443;53.164;5.802;2024-01-25T04:04:24;105797.38;;;3.30;100.00
52535;BME280;38443;53.164;5.802;2024-01-25T04:06:50;105824.53;;;3.27;100.00
52535;BME280;38443;53.164;5.802;2024-01-25T04:09:15;105843.31;;;3.30;100.00
52535;BME280;38443;53.164;5.802;2024-01-25T04:11:40;105850.91;;;3.26;100.00
52535;BME280;38443;53.164;5.802;2024-01-25T04:14:05;105871.03;;;3.24;100.00
52535;BME280;38443;53.164;5.802;2024-01-25T04:16:31;105891.31;;;3.23;100.00
52535;BME280;38443;53.164;5.802;2024-01-25T04:18:57;105901.75;;;3.22;100.00
52535;BME280;38443;53.164;5.802;2024-01-25T04:21:22;105907.59;;;3.17;100.00
52535;BME280;38443;53.164;5.802;2024-01-25T04:23:47;105926.00;;;3.16;100.00
52535;BME280;38443;53.164;5.802;2024-01-25T04:26:12;105942.69;;;3.15;100.00
52535;BME280;38443;53.164;5.802;2024-01-25T04:28:38;105968.13;;;3.13;100.00
52535;BME280;38443;53.164;5.802;2024-01-25T04:31:03;105975.66;;;3.08;100.00
52535;BME280;38443;53.164;5.802;2024-01-25T04:33:29;106002.28;;;3.10;100.00
52535;BME280;38443;53.164;5.802;2024-01-25T04:35:54;106027.97;;;3.11;100.00
52535;BME280;38443;53.164;5.802;2024-01-25T04:38:20;106056.16;;;3.10;100.00
52535;BME280;38443;53.164;5.802;2024-01-25T04:40:45;106085.94;;;3.08;100.00
52535;BME280;38443;53.164;5.802;2024-01-25T04:43:10;106085.66;;;3.05;100.00
52535;BME280;38443;53.164;5.802;2024-01-25T04:45:36;106095.84;;;3.00;100.00
52535;BME280;38443;53.164;5.802;2024-01-25T04:48:01;106117.72;;;2.97;100.00
52535;BME280;38443;53.164;5.802;2024-01-25T04:50:27;106134.13;;;2.93;100.00
52535;BME280;38443;53.164;5.802;2024-01-25T04:52:52;106136.63;;;2.92;100.00
52535;BME280;38443;53.164;5.802;2024-01-25T04:55:17;106160.31;;;2.90;100.00
52535;BME280;38443;53.164;5.802;2024-01-25T04:57:42;106178.81;;;2.90;100.00
52535;BME280;38443;53.164;5.802;2024-01-25T05:00:08;106206.88;;;2.88;100.00
52535;BME280;38443;53.164;5.802;2024-01-25T05:02:34;106224.50;;;2.88;100.00
52535;BME280;38443;53.164;5.802;2024-01-25T05:04:59;106238.53;;;2.87;100.00
52535;BME280;38443;53.164;5.802;2024-01-25T05:07:24;106254.53;;;2.88;100.00
52535;BME280;38443;53.164;5.802;2024-01-25T05:09:49;106278.34;;;2.88;100.00
52535;BME280;38443;53.164;5.802;2024-01-25T05:12:15;106321.78;;;2.90;100.00
52535;BME280;38443;53.164;5.802;2024-01-25T05:14:40;106357.41;;;2.94;100.00
52535;BME280;38443;53.164;5.802;2024-01-25T05:17:05;106376.09;;;2.95;100.00
52535;BME280;38443;53.164;5.802;2024-01-25T05:19:30;106407.84;;;2.95;100.00
52535;BME280;38443;53.164;5.802;2024-01-25T05:21:56;106426.38;;;2.95;100.00
52535;BME280;38443;53.164;5.802;2024-01-25T05:24:21;106450.06;;;2.94;100.00
52535;BME280;38443;53.164;5.802;2024-01-25T05:26:46;106471.09;;;2.92;100.00
52535;BME280;38443;53.164;5.802;2024-01-25T05:29:12;106493.72;;;2.89;100.00
52535;BME280;38443;53.164;5.802;2024-01-25T05:31:38;106529.31;;;2.92;100.00
52535;BME280;38443;53.164;5.802;2024-01-25T05:34:03;106557.94;;;2.96;100.00
52535;BME280;38443;53.164;5.802;2024-01-25T05:36:28;106613.56;;;2.96;100.00
52535;BME280;38443;53.164;5.802;2024-01-25T05:38:53;106634.59;;;2.95;100.00
52535;BME280;38443;53.164;5.802;2024-01-25T05:43:05;106777.69;;;2.96;100.00
52535;BME280;38443;53.164;5.802;2024-01-25T05:45:31;106782.88;;;2.95;100.00
52535;BME280;38443;53.164;5.802;2024-01-25T05:47:56;106793.94;;;2.91;100.00
52535;BME280;38443;53.164;5.802;2024-01-25T05:50:21;106838.00;;;2.90;100.00
52535;BME280;38443;53.164;5.802;2024-01-25T05:52:46;106851.69;;;2.86;100.00
52535;BME280;38443;53.164;5.802;2024-01-25T05:55:12;106871.63;;;2.83;100.00
52535;BME280;38443;53.164;5.802;2024-01-25T05:57:39;106887.06;;;2.78;100.00
52535;BME280;38443;53.164;5.802;2024-01-25T06:00:05;106896.56;;;2.76;100.00
52535;BME280;38443;53.164;5.802;2024-01-25T06:02:31;106900.47;;;2.71;100.00
52535;BME280;38443;53.164;5.802;2024-01-25T06:04:56;106909.47;;;2.64;100.00
52535;BME280;38443;53.164;5.802;2024-01-25T06:07:23;106908.69;;;2.56;100.00
52535;BME280;38443;53.164;5.802;2024-01-25T06:09:48;106902.78;;;2.50;100.00
52535;BME280;38443;53.164;5.802;2024-01-25T06:12:14;106908.25;;;2.43;100.00
52535;BME280;38443;53.164;5.802;2024-01-25T06:14:39;106909.47;;;2.38;100.00
52535;BME280;38443;53.164;5.802;2024-01-25T06:17:04;106903.38;;;2.30;100.00
52535;BME280;38443;53.164;5.802;2024-01-25T06:19:29;106894.34;;;2.28;100.00
52535;BME280;38443;53.164;5.802;2024-01-25T06:21:55;106897.47;;;2.24;100.00
52535;BME280;38443;53.164;5.802;2024-01-25T06:24:20;106899.00;;;2.22;100.00
52535;BME280;38443;53.164;5.802;2024-01-25T06:26:45;106890.44;;;2.16;100.00
52535;BME280;38443;53.164;5.802;2024-01-25T06:29:10;106892.16;;;2.15;100.00
52535;BME280;38443;53.164;5.802;2024-01-25T06:31:42;106884.69;;;2.11;100.00
52535;BME280;38443;53.164;5.802;2024-01-25T06:34:08;106900.56;;;2.11;100.00
52535;BME280;38443;53.164;5.802;2024-01-25T06:36:34;106900.72;;;2.13;100.00
52535;BME280;38443;53.164;5.802;2024-01-25T06:38:59;106903.81;;;2.09;100.00
52535;BME280;38443;53.164;5.802;2024-01-25T06:41:24;106898.38;;;2.07;100.00
52535;BME280;38443;53.164;5.802;2024-01-25T06:43:50;106907.50;;;2.02;100.00
52535;BME280;38443;53.164;5.802;2024-01-25T06:46:15;106910.03;;;2.01;100.00
52535;BME280;38443;53.164;5.802;2024-01-25T06:48:40;106904.22;;;1.96;100.00
52535;BME280;38443;53.164;5.802;2024-01-25T06:51:06;106896.59;;;1.90;100.00
52535;BME280;38443;53.164;5.802;2024-01-25T06:53:31;106905.94;;;1.87;100.00
52535;BME280;38443;53.164;5.802;2024-01-25T06:55:57;106910.44;;;1.88;100.00
52535;BME280;38443;53.164;5.802;2024-01-25T06:58:22;106914.44;;;1.84;100.00
52535;BME280;38443;53.164;5.802;2024-01-25T07:00:48;106915.41;;;1.85;100.00
52535;BME280;38443;53.164;5.802;2024-01-25T07:03:13;106914.91;;;1.80;100.00
52535;BME280;38443;53.164;5.802;2024-01-25T07:05:40;106936.22;;;1.82;100.00
52535;BME280;38443;53.164;5.802;2024-01-25T07:08:06;106941.84;;;1.85;100.00
52535;BME280;38443;53.164;5.802;2024-01-25T07:10:34;106950.97;;;1.79;100.00
52535;BME280;38443;53.164;5.802;2024-01-25T07:12:59;106944.94;;;1.81;100.00
52535;BME280;38443;53.164;5.802;2024-01-25T07:15:24;106950.06;;;1.79;100.00
52535;BME280;38443;53.164;5.802;2024-01-25T07:17:50;106965.28;;;1.82;100.00
52535;BME280;38443;53.164;5.802;2024-01-25T07:20:15;106960.78;;;1.81;100.00
52535;BME280;38443;53.164;5.802;2024-01-25T07:22:40;106981.97;;;1.89;100.00
52535;BME280;38443;53.164;5.802;2024-01-25T07:25:06;106997.03;;;1.90;100.00
52535;BME280;38443;53.164;5.802;2024-01-25T07:27:31;107008.59;;;1.99;100.00
52535;BME280;38443;53.164;5.802;2024-01-25T07:29:57;107020.44;;;2.03;100.00
52535;BME280;38443;53.164;5.802;2024-01-25T07:32:22;107039.75;;;2.11;100.00
52535;BME280;38443;53.164;5.802;2024-01-25T07:34:52;107058.28;;;2.11;100.00
52535;BME280;38443;53.164;5.802;2024-01-25T07:37:18;107061.84;;;2.11;100.00
52535;BME280;38443;53.164;5.802;2024-01-25T07:39:43;107071.81;;;2.14;100.00
52535;BME280;38443;53.164;5.802;2024-01-25T07:42:09;107074.13;;;2.11;100.00
52535;BME280;38443;53.164;5.802;2024-01-25T07:44:34;107097.31;;;2.13;100.00
52535;BME280;38443;53.164;5.802;2024-01-25T07:47:01;107107.72;;;2.12;100.00
52535;BME280;38443;53.164;5.802;2024-01-25T07:49:28;107114.13;;;2.14;100.00
52535;BME280;38443;53.164;5.802;2024-01-25T07:51:53;107128.00;;;2.20;100.00
52535;BME280;38443;53.164;5.802;2024-01-25T07:54:22;107129.53;;;2.18;100.00
52535;BME280;38443;53.164;5.802;2024-01-25T07:56:48;107141.38;;;2.22;100.00
52535;BME280;38443;53.164;5.802;2024-01-25T07:59:13;107155.88;;;2.25;100.00
52535;BME280;38443;53.164;5.802;2024-01-25T08:01:38;107163.03;;;2.26;100.00
52535;BME280;38443;53.164;5.802;2024-01-25T08:04:03;107168.97;;;2.32;100.00
52535;BME280;38443;53.164;5.802;2024-01-25T08:06:29;107171.78;;;2.34;100.00
52535;BME280;38443;53.164;5.802;2024-01-25T08:08:54;107157.94;;;2.36;100.00
52535;BME280;38443;53.164;5.802;2024-01-25T08:11:20;107166.84;;;2.37;100.00
52535;BME280;38443;53.164;5.802;2024-01-25T08:13:45;107174.00;;;2.38;100.00
52535;BME280;38443;53.164;5.802;2024-01-25T08:16:11;107180.84;;;2.36;100.00
52535;BME280;38443;53.164;5.802;2024-01-25T08:18:36;107191.59;;;2.37;100.00
52535;BME280;38443;53.164;5.802;2024-01-25T08:21:01;107194.22;;;2.37;100.00
52535;BME280;38443;53.164;5.802;2024-01-25T08:23:27;107203.63;;;2.43;100.00
52535;BME280;38443;53.164;5.802;2024-01-25T08:25:52;107209.66;;;2.42;100.00
52535;BME280;38443;53.164;5.802;2024-01-25T08:28:18;107212.66;;;2.45;100.00
52535;BME280;38443;53.164;5.802;2024-01-25T08:30:45;107220.72;;;2.46;100.00
52535;BME280;38443;53.164;5.802;2024-01-25T08:33:10;107238.66;;;2.49;100.00
52535;BME280;38443;53.164;5.802;2024-01-25T08:35:35;107238.66;;;2.49;100.00
52535;BME280;38443;53.164;5.802;2024-01-25T08:38:01;107262.19;;;2.54;100.00
52535;BME280;38443;53.164;5.802;2024-01-25T08:40:26;107270.13;;;2.54;100.00
52535;BME280;38443;53.164;5.802;2024-01-25T08:42:51;107288.53;;;2.62;100.00
52535;BME280;38443;53.164;5.802;2024-01-25T08:45:16;107292.91;;;2.61;100.00
52535;BME280;38443;53.164;5.802;2024-01-25T08:47:44;107267.72;;;2.65;100.00
52535;BME280;38443;53.164;5.802;2024-01-25T08:50:10;107285.47;;;2.66;100.00
52535;BME280;38443;53.164;5.802;2024-01-25T08:52:37;107294.31;;;2.66;100.00
52535;BME280;38443;53.164;5.802;2024-01-25T08:55:05;107308.06;;;2.71;100.00
52535;BME280;38443;53.164;5.802;2024-01-25T08:57:31;107337.50;;;2.74;100.00
52535;BME280;38443;53.164;5.802;2024-01-25T08:59:56;107350.66;;;2.81;100.00
52535;BME280;38443;53.164;5.802;2024-01-25T09:02:26;107356.25;;;2.84;100.00
52535;BME280;38443;53.164;5.802;2024-01-25T09:04:53;107376.25;;;2.89;100.00
52535;BME280;38443;53.164;5.802;2024-01-25T09:07:21;107382.03;;;2.94;100.00
52535;BME280;38443;53.164;5.802;2024-01-25T09:09:47;107393.91;;;2.97;100.00
52535;BME280;38443;53.164;5.802;2024-01-25T09:12:13;107408.72;;;3.04;100.00
52535;BME280;38443;53.164;5.802;2024-01-25T09:14:40;107420.25;;;3.05;100.00
52535;BME280;38443;53.164;5.802;2024-01-25T09:17:05;107433.22;;;3.10;100.00
52535;BME280;38443;53.164;5.802;2024-01-25T09:19:30;107435.88;;;3.10;100.00
52535;BME280;38443;53.164;5.802;2024-01-25T09:21:56;107443.25;;;3.13;100.00
52535;BME280;38443;53.164;5.802;2024-01-25T09:24:23;107468.19;;;3.15;100.00
52535;BME280;38443;53.164;5.802;2024-01-25T09:26:48;107478.16;;;3.17;100.00
52535;BME280;38443;53.164;5.802;2024-01-25T09:29:14;107466.78;;;3.18;100.00
52535;BME280;38443;53.164;5.802;2024-01-25T09:31:39;107488.50;;;3.23;100.00
52535;BME280;38443;53.164;5.802;2024-01-25T09:34:04;107505.31;;;3.24;100.00
52535;BME280;38443;53.164;5.802;2024-01-25T09:36:29;107510.19;;;3.28;100.00
52535;BME280;38443;53.164;5.802;2024-01-25T09:38:55;107522.69;;;3.29;100.00
52535;BME280;38443;53.164;5.802;2024-01-25T09:41:20;107525.66;;;3.32;100.00
52535;BME280;38443;53.164;5.802;2024-01-25T09:43:45;107528.47;;;3.33;100.00
52535;BME280;38443;53.164;5.802;2024-01-25T09:46:12;107543.75;;;3.36;100.00
52535;BME280;38443;53.164;5.802;2024-01-25T09:48:38;107549.97;;;3.36;100.00
52535;BME280;38443;53.164;5.802;2024-01-25T09:51:05;107567.94;;;3.39;100.00
52535;BME280;38443;53.164;5.802;2024-01-25T09:53:31;107573.41;;;3.40;100.00
52535;BME280;38443;53.164;5.802;2024-01-25T09:56:05;107566.72;;;3.44;100.00
52535;BME280;38443;53.164;5.802;2024-01-25T09:58:43;107589.97;;;3.47;100.00
52535;BME280;38443;53.164;5.802;2024-01-25T10:01:12;107591.44;;;3.52;100.00
52535;BME280;38443;53.164;5.802;2024-01-25T10:03:38;107604.59;;;3.59;100.00
52535;BME280;38443;53.164;5.802;2024-01-25T10:06:08;107630.53;;;3.70;100.00
52535;BME280;38443;53.164;5.802;2024-01-25T10:08:34;107647.63;;;3.81;100.00
52535;BME280;38443;53.164;5.802;2024-01-25T10:10:59;107651.63;;;3.93;100.00
52535;BME280;38443;53.164;5.802;2024-01-25T10:13:26;107675.72;;;4.04;100.00
52535;BME280;38443;53.164;5.802;2024-01-25T10:15:51;107691.69;;;4.12;100.00
52535;BME280;38443;53.164;5.802;2024-01-25T10:18:17;107708.59;;;4.22;100.00
52535;BME280;38443;53.164;5.802;2024-01-25T10:20:42;107726.47;;;4.31;100.00
52535;BME280;38443;53.164;5.802;2024-01-25T10:23:08;107725.41;;;4.38;100.00
52535;BME280;38443;53.164;5.802;2024-01-25T10:25:34;107734.19;;;4.46;100.00
52535;BME280;38443;53.164;5.802;2024-01-25T10:28:01;107755.47;;;4.54;100.00
52535;BME280;38443;53.164;5.802;2024-01-25T10:30:26;107776.19;;;4.66;100.00
52535;BME280;38443;53.164;5.802;2024-01-25T10:32:52;107787.00;;;4.76;100.00
52535;BME280;38443;53.164;5.802;2024-01-25T10:35:20;107778.94;;;4.83;100.00
52535;BME280;38443;53.164;5.802;2024-01-25T10:37:45;107804.72;;;4.93;100.00
52535;BME280;38443;53.164;5.802;2024-01-25T10:40:11;107816.53;;;5.04;100.00
52535;BME280;38443;53.164;5.802;2024-01-25T10:42:36;107822.81;;;5.13;100.00
52535;BME280;38443;53.164;5.802;2024-01-25T10:45:03;107830.03;;;5.23;100.00
52535;BME280;38443;53.164;5.802;2024-01-25T10:47:29;107829.47;;;5.34;100.00
52535;BME280;38443;53.164;5.802;2024-01-25T10:50:00;107853.13;;;5.48;100.00
52535;BME280;38443;53.164;5.802;2024-01-25T10:52:25;107848.34;;;5.62;100.00
52535;BME280;38443;53.164;5.802;2024-01-25T10:54:51;107885.47;;;5.77;100.00
52535;BME280;38443;53.164;5.802;2024-01-25T10:57:17;107883.28;;;5.91;100.00
52535;BME280;38443;53.164;5.802;2024-01-25T10:59:42;107885.03;;;5.99;100.00
52535;BME280;38443;53.164;5.802;2024-01-25T11:02:08;107859.06;;;6.05;100.00
52535;BME280;38443;53.164;5.802;2024-01-25T11:04:34;107841.06;;;6.11;100.00
52535;BME280;38443;53.164;5.802;2024-01-25T11:07:08;107799.25;;;6.10;100.00
52535;BME280;38443;53.164;5.802;2024-01-25T11:09:35;107764.66;;;6.10;100.00
52535;BME280;38443;53.164;5.802;2024-01-25T11:12:11;107738.53;;;6.06;100.00
52535;BME280;38443;53.164;5.802;2024-01-25T11:14:37;107675.44;;;5.96;100.00
52535;BME280;38443;53.164;5.802;2024-01-25T11:17:15;107616.41;;;5.83;100.00
52535;BME280;38443;53.164;5.802;2024-01-25T11:19:40;107582.31;;;5.79;100.00
52535;BME280;38443;53.164;5.802;2024-01-25T11:22:05;107528.97;;;5.69;100.00
52535;BME280;38443;53.164;5.802;2024-01-25T11:24:37;107521.00;;;5.69;100.00
52535;BME280;38443;53.164;5.802;2024-01-25T11:27:04;107507.53;;;5.67;100.00
52535;BME280;38443;53.164;5.802;2024-01-25T11:29:30;107496.91;;;5.67;100.00
52535;BME280;38443;53.164;5.802;2024-01-25T11:31:55;107463.63;;;5.62;100.00
52535;BME280;38443;53.164;5.802;2024-01-25T11:34:22;107428.88;;;5.60;100.00
52535;BME280;38443;53.164;5.802;2024-01-25T11:36:48;107401.03;;;5.57;100.00
52535;BME280;38443;53.164;5.802;2024-01-25T11:39:14;107360.72;;;5.52;100.00
52535;BME280;38443;53.164;5.802;2024-01-25T11:41:41;107336.78;;;5.52;100.00
52535;BME280;38443;53.164;5.802;2024-01-25T11:44:07;107326.47;;;5.55;100.00
52535;BME280;38443;53.164;5.802;2024-01-25T11:46:34;107304.22;;;5.55;100.00
52535;BME280;38443;53.164;5.802;2024-01-25T11:48:59;107287.50;;;5.56;100.00
52535;BME280;38443;53.164;5.802;2024-01-25T11:51:25;107284.34;;;5.60;100.00
52535;BME280;38443;53.164;5.802;2024-01-25T11:53:50;107291.03;;;5.65;100.00
52535;BME280;38443;53.164;5.802;2024-01-25T11:56:28;107274.88;;;5.72;100.00
52535;BME280;38443;53.164;5.802;2024-01-25T11:58:54;107259.34;;;5.77;100.00
52535;BME280;38443;53.164;5.802;2024-01-25T12:01:23;107237.44;;;5.79;100.00
52535;BME280;38443;53.164;5.802;2024-01-25T12:03:49;107218.44;;;5.85;100.00
52535;BME280;38443;53.164;5.802;2024-01-25T12:06:14;107196.53;;;5.88;100.00
52535;BME280;38443;53.164;5.802;2024-01-25T12:08:39;107176.91;;;5.96;100.00
52535;BME280;38443;53.164;5.802;2024-01-25T12:11:05;107152.44;;;6.00;100.00
52535;BME280;38443;53.164;5.802;2024-01-25T12:13:42;107145.97;;;6.07;100.00
52535;BME280;38443;53.164;5.802;2024-01-25T12:16:08;107114.44;;;6.11;100.00
52535;BME280;38443;53.164;5.802;2024-01-25T12:18:34;107076.09;;;6.09;100.00
52535;BME280;38443;53.164;5.802;2024-01-25T12:21:02;107013.81;;;6.07;100.00
52535;BME280;38443;53.164;5.802;2024-01-25T12:23:35;106979.38;;;6.09;100.00
52535;BME280;38443;53.164;5.802;2024-01-25T12:26:03;106955.56;;;6.10;100.00
52535;BME280;38443;53.164;5.802;2024-01-25T12:28:29;106913.75;;;6.09;100.00
52535;BME280;38443;53.164;5.802;2024-01-25T12:30:56;106859.63;;;6.09;100.00
52535;BME280;38443;53.164;5.802;2024-01-25T12:33:21;106805.63;;;5.99;100.00
52535;BME280;38443;53.164;5.802;2024-01-25T12:35:46;106753.06;;;5.97;100.00
52535;BME280;38443;53.164;5.802;2024-01-25T12:38:11;106703.69;;;5.90;100.00
52535;BME280;38443;53.164;5.802;2024-01-25T12:40:37;106658.59;;;5.92;100.00
52535;BME280;38443;53.164;5.802;2024-01-25T12:43:02;106622.44;;;5.84;100.00
52535;BME280;38443;53.164;5.802;2024-01-25T12:45:28;106588.53;;;5.81;100.00
52535;BME280;38443;53.164;5.802;2024-01-25T12:47:53;106542.44;;;5.70;100.00